sensor_id;sensor_type;location;lat;lon;timestamp;P1;durP1;ratioP1;P2;durP2;ratioP2
22861;SDS011;11598;50.652;6.172;2023-05-29T00:05:29;12.27;;;4.82;;
22861;SDS011;11598;50.652;6.172;2023-05-29T00:15:29;12.20;;;4.18;;
22861;SDS011;11598;50.652;6.172;2023-05-29T00:25:30;13.38;;;4.78;;
22861;SDS011;11598;50.652;6.172;2023-05-29T00:35:30;10.57;;;4.03;;
22861;SDS011;11598;50.652;6.172;2023-05-29T00:45:31;14.37;;;4.50;;
22861;SDS011;11598;50.652;6.172;2023-05-29T00:55:36;11.02;;;4.40;;
22861;SDS011;11598;50.652;6.172;2023-05-29T01:05:36;9.18;;;4.07;;
22861;SDS011;11598;50.652;6.172;2023-05-29T01:15:41;13.15;;;4.20;;
22861;SDS011;11598;50.652;6.172;2023-05-29T01:36:12;9.57;;;4.60;;
22861;SDS011;11598;50.652;6.172;2023-05-29T01:46:12;8.23;;;4.18;;
22861;SDS011;11598;50.652;6.172;2023-05-29T01:56:14;14.95;;;4.60;;
22861;SDS011;11598;50.652;6.172;2023-05-29T02:06:15;10.52;;;4.10;;
22861;SDS011;11598;50.652;6.172;2023-05-29T02:16:15;15.95;;;4.93;;
22861;SDS011;11598;50.652;6.172;2023-05-29T02:26:17;11.20;;;4.05;;
22861;SDS011;11598;50.652;6.172;2023-05-29T02:36:17;11.88;;;5.13;;
22861;SDS011;11598;50.652;6.172;2023-05-29T02:46:18;9.57;;;4.30;;
22861;SDS011;11598;50.652;6.172;2023-05-29T02:56:19;11.10;;;4.20;;
22861;SDS011;11598;50.652;6.172;2023-05-29T03:06:23;7.68;;;4.18;;
22861;SDS011;11598;50.652;6.172;2023-05-29T03:16:24;10.00;;;4.63;;
22861;SDS011;11598;50.652;6.172;2023-05-29T03:26:25;10.95;;;5.03;;
22861;SDS011;11598;50.652;6.172;2023-05-29T03:36:25;11.27;;;4.30;;
22861;SDS011;11598;50.652;6.172;2023-05-29T03:46:27;15.43;;;4.93;;
22861;SDS011;11598;50.652;6.172;2023-05-29T03:56:27;9.82;;;4.50;;
22861;SDS011;11598;50.652;6.172;2023-05-29T04:06:27;10.13;;;4.20;;
22861;SDS011;11598;50.652;6.172;2023-05-29T04:16:28;9.07;;;4.45;;
22861;SDS011;11598;50.652;6.172;2023-05-29T04:26:28;12.98;;;4.55;;
22861;SDS011;11598;50.652;6.172;2023-05-29T04:36:29;13.13;;;4.50;;
22861;SDS011;11598;50.652;6.172;2023-05-29T04:46:32;14.67;;;5.57;;
22861;SDS011;11598;50.652;6.172;2023-05-29T04:56:34;12.30;;;5.65;;
22861;SDS011;11598;50.652;6.172;2023-05-29T05:06:34;18.08;;;5.80;;
22861;SDS011;11598;50.652;6.172;2023-05-29T05:16:34;10.63;;;5.40;;
22861;SDS011;11598;50.652;6.172;2023-05-29T05:26:35;12.75;;;5.53;;
22861;SDS011;11598;50.652;6.172;2023-05-29T05:36:35;14.95;;;5.63;;
22861;SDS011;11598;50.652;6.172;2023-05-29T05:46:36;13.50;;;5.57;;
22861;SDS011;11598;50.652;6.172;2023-05-29T05:56:37;13.27;;;5.65;;
22861;SDS011;11598;50.652;6.172;2023-05-29T06:06:37;17.25;;;5.25;;
22861;SDS011;11598;50.652;6.172;2023-05-29T06:16:38;13.27;;;5.32;;
22861;SDS011;11598;50.652;6.172;2023-05-29T06:26:38;13.32;;;4.72;;
22861;SDS011;11598;50.652;6.172;2023-05-29T06:36:39;14.70;;;5.00;;
22861;SDS011;11598;50.652;6.172;2023-05-29T06:46:41;14.05;;;4.70;;
22861;SDS011;11598;50.652;6.172;2023-05-29T06:56:41;14.10;;;4.50;;
22861;SDS011;11598;50.652;6.172;2023-05-29T07:06:42;15.27;;;4.25;;
22861;SDS011;11598;50.652;6.172;2023-05-29T07:16:42;15.90;;;4.30;;
22861;SDS011;11598;50.652;6.172;2023-05-29T07:26:42;16.98;;;4.22;;
22861;SDS011;11598;50.652;6.172;2023-05-29T07:37:04;15.37;;;4.00;;
22861;SDS011;11598;50.652;6.172;2023-05-29T07:47:04;14.65;;;3.88;;
22861;SDS011;11598;50.652;6.172;2023-05-29T07:57:05;15.02;;;3.63;;
22861;SDS011;11598;50.652;6.172;2023-05-29T08:17:09;11.98;;;4.00;;
22861;SDS011;11598;50.652;6.172;2023-05-29T08:27:10;17.77;;;4.13;;
22861;SDS011;11598;50.652;6.172;2023-05-29T08:37:10;14.98;;;3.78;;
22861;SDS011;11598;50.652;6.172;2023-05-29T08:47:11;21.13;;;4.40;;
22861;SDS011;11598;50.652;6.172;2023-05-29T08:57:18;15.63;;;4.60;;
22861;SDS011;11598;50.652;6.172;2023-05-29T09:07:20;16.00;;;4.72;;
22861;SDS011;11598;50.652;6.172;2023-05-29T09:17:21;17.48;;;4.30;;
22861;SDS011;11598;50.652;6.172;2023-05-29T09:27:21;18.88;;;4.93;;
22861;SDS011;11598;50.652;6.172;2023-05-29T09:37:22;20.92;;;4.97;;
22861;SDS011;11598;50.652;6.172;2023-05-29T09:47:22;19.03;;;4.97;;
22861;SDS011;11598;50.652;6.172;2023-05-29T09:57:23;16.90;;;4.45;;
22861;SDS011;11598;50.652;6.172;2023-05-29T10:07:26;22.08;;;5.05;;
22861;SDS011;11598;50.652;6.172;2023-05-29T10:17:36;17.75;;;4.47;;
22861;SDS011;11598;50.652;6.172;2023-05-29T10:27:39;13.98;;;4.32;;
22861;SDS011;11598;50.652;6.172;2023-05-29T10:58:08;17.08;;;4.57;;
22861;SDS011;11598;50.652;6.172;2023-05-29T11:08:12;21.50;;;5.40;;
22861;SDS011;11598;50.652;6.172;2023-05-29T11:18:13;16.02;;;4.80;;
22861;SDS011;11598;50.652;6.172;2023-05-29T11:28:14;22.63;;;4.88;;
22861;SDS011;11598;50.652;6.172;2023-05-29T11:38:15;17.10;;;4.95;;
22861;SDS011;11598;50.652;6.172;2023-05-29T11:48:16;17.60;;;5.20;;
22861;SDS011;11598;50.652;6.172;2023-05-29T11:58:16;20.30;;;4.95;;
22861;SDS011;11598;50.652;6.172;2023-05-29T12:08:17;20.20;;;5.45;;
22861;SDS011;11598;50.652;6.172;2023-05-29T12:18:18;21.60;;;4.95;;
22861;SDS011;11598;50.652;6.172;2023-05-29T12:28:18;19.20;;;5.07;;
22861;SDS011;11598;50.652;6.172;2023-05-29T12:38:20;18.85;;;4.57;;
22861;SDS011;11598;50.652;6.172;2023-05-29T12:48:26;20.75;;;5.72;;
22861;SDS011;11598;50.652;6.172;2023-05-29T12:58:27;16.90;;;6.07;;
22861;SDS011;11598;50.652;6.172;2023-05-29T13:08:27;17.60;;;5.10;;
22861;SDS011;11598;50.652;6.172;2023-05-29T13:18:28;19.50;;;5.10;;
22861;SDS011;11598;50.652;6.172;2023-05-29T13:28:28;18.90;;;5.40;;
22861;SDS011;11598;50.652;6.172;2023-05-29T13:38:28;15.48;;;4.60;;
22861;SDS011;11598;50.652;6.172;2023-05-29T13:48:29;19.85;;;4.95;;
22861;SDS011;11598;50.652;6.172;2023-05-29T13:58:29;17.45;;;4.78;;
22861;SDS011;11598;50.652;6.172;2023-05-29T14:08:30;15.68;;;4.70;;
22861;SDS011;11598;50.652;6.172;2023-05-29T14:18:30;18.42;;;5.32;;
22861;SDS011;11598;50.652;6.172;2023-05-29T14:28:30;19.55;;;4.82;;
22861;SDS011;11598;50.652;6.172;2023-05-29T14:38:31;15.15;;;4.25;;
22861;SDS011;11598;50.652;6.172;2023-05-29T14:48:31;16.52;;;5.25;;
22861;SDS011;11598;50.652;6.172;2023-05-29T14:58:32;19.08;;;5.10;;
22861;SDS011;11598;50.652;6.172;2023-05-29T15:08:32;16.10;;;4.13;;
22861;SDS011;11598;50.652;6.172;2023-05-29T15:18:35;19.73;;;4.40;;
22861;SDS011;11598;50.652;6.172;2023-05-29T15:28:36;14.27;;;3.85;;
22861;SDS011;11598;50.652;6.172;2023-05-29T15:38:36;19.23;;;5.03;;
22861;SDS011;11598;50.652;6.172;2023-05-29T15:48:36;17.00;;;4.07;;
22861;SDS011;11598;50.652;6.172;2023-05-29T15:58:37;21.35;;;4.50;;
22861;SDS011;11598;50.652;6.172;2023-05-29T16:08:37;9.70;;;3.03;;
22861;SDS011;11598;50.652;6.172;2023-05-29T16:18:40;12.20;;;3.75;;
22861;SDS011;11598;50.652;6.172;2023-05-29T16:28:40;13.77;;;3.88;;
22861;SDS011;11598;50.652;6.172;2023-05-29T16:38:41;12.30;;;3.45;;
22861;SDS011;11598;50.652;6.172;2023-05-29T16:48:42;11.48;;;2.90;;
22861;SDS011;11598;50.652;6.172;2023-05-29T16:58:42;10.38;;;3.28;;
22861;SDS011;11598;50.652;6.172;2023-05-29T17:08:43;10.32;;;3.30;;
22861;SDS011;11598;50.652;6.172;2023-05-29T17:18:43;8.63;;;2.55;;
22861;SDS011;11598;50.652;6.172;2023-05-29T17:28:44;14.05;;;3.70;;
22861;SDS011;11598;50.652;6.172;2023-05-29T17:38:44;17.17;;;3.53;;
22861;SDS011;11598;50.652;6.172;2023-05-29T17:48:45;15.15;;;3.70;;
22861;SDS011;11598;50.652;6.172;2023-05-29T17:58:46;16.65;;;3.35;;
22861;SDS011;11598;50.652;6.172;2023-05-29T18:08:48;16.95;;;3.28;;
22861;SDS011;11598;50.652;6.172;2023-05-29T18:18:49;10.82;;;2.70;;
22861;SDS011;11598;50.652;6.172;2023-05-29T18:28:49;14.15;;;3.20;;
22861;SDS011;11598;50.652;6.172;2023-05-29T18:38:51;12.05;;;2.70;;
22861;SDS011;11598;50.652;6.172;2023-05-29T18:48:54;12.00;;;2.28;;
22861;SDS011;11598;50.652;6.172;2023-05-29T18:58:54;12.52;;;2.63;;
22861;SDS011;11598;50.652;6.172;2023-05-29T19:08:54;15.80;;;3.22;;
22861;SDS011;11598;50.652;6.172;2023-05-29T19:18:55;14.13;;;2.80;;
22861;SDS011;11598;50.652;6.172;2023-05-29T19:28:59;10.30;;;2.60;;
22861;SDS011;11598;50.652;6.172;2023-05-29T19:38:59;13.30;;;2.65;;
22861;SDS011;11598;50.652;6.172;2023-05-29T19:49:01;8.18;;;2.20;;
22861;SDS011;11598;50.652;6.172;2023-05-29T19:59:01;10.15;;;2.70;;
22861;SDS011;11598;50.652;6.172;2023-05-29T20:09:03;11.27;;;2.65;;
22861;SDS011;11598;50.652;6.172;2023-05-29T20:19:06;10.50;;;2.50;;
22861;SDS011;11598;50.652;6.172;2023-05-29T20:29:07;12.60;;;2.60;;
22861;SDS011;11598;50.652;6.172;2023-05-29T20:39:07;9.88;;;2.58;;
22861;SDS011;11598;50.652;6.172;2023-05-29T20:49:08;14.02;;;3.03;;
22861;SDS011;11598;50.652;6.172;2023-05-29T20:59:09;11.60;;;2.72;;
22861;SDS011;11598;50.652;6.172;2023-05-29T21:09:12;10.90;;;2.20;;
22861;SDS011;11598;50.652;6.172;2023-05-29T21:19:12;9.68;;;2.70;;
22861;SDS011;11598;50.652;6.172;2023-05-29T21:29:12;8.45;;;2.30;;
22861;SDS011;11598;50.652;6.172;2023-05-29T21:39:13;12.55;;;2.53;;
22861;SDS011;11598;50.652;6.172;2023-05-29T21:49:13;9.63;;;2.50;;
22861;SDS011;11598;50.652;6.172;2023-05-29T21:59:14;15.20;;;2.70;;
22861;SDS011;11598;50.652;6.172;2023-05-29T22:09:14;19.33;;;3.00;;
22861;SDS011;11598;50.652;6.172;2023-05-29T22:19:14;13.57;;;2.70;;
22861;SDS011;11598;50.652;6.172;2023-05-29T22:29:15;11.23;;;2.60;;
22861;SDS011;11598;50.652;6.172;2023-05-29T22:39:15;11.90;;;3.10;;
22861;SDS011;11598;50.652;6.172;2023-05-29T22:49:15;10.88;;;2.75;;
22861;SDS011;11598;50.652;6.172;2023-05-29T22:59:16;13.70;;;2.90;;
22861;SDS011;11598;50.652;6.172;2023-05-29T23:09:17;12.95;;;3.72;;
22861;SDS011;11598;50.652;6.172;2023-05-29T23:19:18;14.25;;;2.90;;
22861;SDS011;11598;50.652;6.172;2023-05-29T23:29:18;17.45;;;2.55;;
22861;SDS011;11598;50.652;6.172;2023-05-29T23:39:19;14.23;;;3.03;;
22861;SDS011;11598;50.652;6.172;2023-05-29T23:49:19;17.98;;;2.55;;
22861;SDS011;11598;50.652;6.172;2023-05-29T23:59:21;15.35;;;3.05;;
